createdAt,value
2023-01-30T00:01:38.830Z,101303.20
2023-01-30T00:04:10.495Z,101297.93
2023-01-30T00:06:41.856Z,101293.30
2023-01-30T00:09:15.028Z,101289.16
2023-01-30T00:11:47.552Z,101295.56
2023-01-30T00:14:19.132Z,101293.68
2023-01-30T00:16:51.530Z,101297.02
2023-01-30T00:19:22.276Z,101295.49
2023-01-30T00:21:53.327Z,101297.73
2023-01-30T00:24:24.996Z,101297.64
2023-01-30T00:26:56.585Z,101296.30
2023-01-30T00:29:27.423Z,101296.88
2023-01-30T00:31:58.602Z,101293.56
2023-01-30T00:34:29.885Z,101295.41
2023-01-30T00:37:08.055Z,101300.76
2023-01-30T00:39:40.168Z,101301.20
2023-01-30T00:49:10.050Z,101293.54
2023-01-30T00:51:40.705Z,101296.04
2023-01-30T00:54:11.552Z,101295.17
2023-01-30T00:56:42.332Z,101300.33
2023-01-30T00:59:13.164Z,101296.40
2023-01-30T01:01:43.957Z,101293.92
2023-01-30T01:04:14.768Z,101289.38
2023-01-30T01:06:45.596Z,101287.27
2023-01-30T01:09:16.322Z,101282.46
2023-01-30T01:11:47.023Z,101283.48
2023-01-30T01:14:17.927Z,101278.47
2023-01-30T01:16:48.705Z,101281.86
2023-01-30T01:19:19.469Z,101284.89
2023-01-30T01:21:50.229Z,101277.83
2023-01-30T01:24:21.090Z,101276.65
2023-01-30T01:26:51.898Z,101275.34
2023-01-30T01:29:22.707Z,101276.09
2023-01-30T01:31:53.459Z,101278.58
2023-01-30T01:34:24.336Z,101278.95
2023-01-30T01:36:55.160Z,101276.30
2023-01-30T01:39:46.178Z,101278.36
2023-01-30T01:42:16.909Z,101276.23
2023-01-30T01:45:05.055Z,101277.13
2023-01-30T01:47:35.761Z,101273.11
2023-01-30T01:50:06.781Z,101263.41
2023-01-30T01:52:37.520Z,101253.67
2023-01-30T01:55:08.846Z,101253.72
2023-01-30T01:57:40.237Z,101247.60
2023-01-30T02:00:14.911Z,101246.88
2023-01-30T02:02:46.958Z,101242.42
2023-01-30T02:05:18.176Z,101242.62
2023-01-30T02:07:52.438Z,101252.77
2023-01-30T02:10:23.818Z,101252.46
2023-01-30T02:12:54.546Z,101250.25
2023-01-30T02:15:25.385Z,101248.63
2023-01-30T02:17:56.128Z,101248.28
2023-01-30T02:20:30.547Z,101245.16
2023-01-30T02:23:20.688Z,101244.80
2023-01-30T02:25:56.570Z,101249.95
2023-01-30T02:28:33.993Z,101248.77
2023-01-30T02:31:07.283Z,101251.62
2023-01-30T02:33:41.441Z,101252.58
2023-01-30T02:36:15.111Z,101252.08
2023-01-30T02:38:48.726Z,101250.95
2023-01-30T02:41:21.574Z,101248.93
2023-01-30T02:43:56.072Z,101247.09
2023-01-30T02:46:27.524Z,101245.77
2023-01-30T02:48:58.801Z,101244.73
2023-01-30T02:51:30.334Z,101236.50
2023-01-30T02:54:01.532Z,101236.08
2023-01-30T02:56:42.503Z,101239.72
2023-01-30T02:59:13.305Z,101236.39
2023-01-30T03:01:57.462Z,101237.08
2023-01-30T03:04:38.033Z,101229.39
2023-01-30T03:07:12.939Z,101234.63
2023-01-30T03:09:45.952Z,101227.04
2023-01-30T03:12:17.967Z,101222.23
2023-01-30T03:14:49.975Z,101218.41
2023-01-30T03:17:20.805Z,101217.09
2023-01-30T03:19:52.051Z,101218.52
2023-01-30T03:22:23.215Z,101215.26
2023-01-30T03:24:54.544Z,101212.61
2023-01-30T03:27:25.370Z,101212.51
2023-01-30T03:29:56.070Z,101211.48
2023-01-30T03:32:27.020Z,101214.02
2023-01-30T03:34:58.898Z,101209.97
2023-01-30T03:37:30.143Z,101201.14
2023-01-30T03:40:01.602Z,101197.16
2023-01-30T03:42:33.154Z,101192.56
2023-01-30T03:45:04.705Z,101186.26
2023-01-30T03:47:36.127Z,101184.48
2023-01-30T03:50:08.115Z,101180.61
2023-01-30T03:52:39.551Z,101170.96
2023-01-30T03:55:11.529Z,101167.77
2023-01-30T03:57:42.968Z,101159.96
2023-01-30T04:00:15.514Z,101165.59
2023-01-30T04:02:46.774Z,101162.76
2023-01-30T04:05:18.756Z,101159.16
2023-01-30T04:07:50.683Z,101154.20
2023-01-30T04:10:22.227Z,101153.14
2023-01-30T04:12:53.659Z,101153.45
2023-01-30T04:15:24.767Z,101151.02
2023-01-30T04:17:56.190Z,101152.23
2023-01-30T04:20:27.732Z,101153.27
2023-01-30T04:22:59.455Z,101148.95
2023-01-30T04:25:30.463Z,101151.06
2023-01-30T04:28:01.814Z,101151.64
2023-01-30T04:30:33.197Z,101150.98
2023-01-30T04:33:04.990Z,101149.30
2023-01-30T04:35:36.363Z,101147.02
2023-01-30T04:38:07.337Z,101142.67
2023-01-30T04:40:38.604Z,101145.07
2023-01-30T04:43:10.128Z,101147.94
2023-01-30T04:45:43.734Z,101148.87
2023-01-30T04:48:15.183Z,101148.95
2023-01-30T04:50:48.479Z,101152.91
2023-01-30T04:53:20.189Z,101153.54
2023-01-30T04:55:51.622Z,101156.63
2023-01-30T04:58:23.244Z,101159.03
2023-01-30T05:00:54.636Z,101159.70
2023-01-30T05:03:26.165Z,101157.85
2023-01-30T05:05:57.393Z,101157.39
2023-01-30T05:08:28.846Z,101156.77
2023-01-30T05:11:00.394Z,101155.77
2023-01-30T05:13:31.958Z,101157.11
2023-01-30T05:16:03.314Z,101161.20
2023-01-30T05:18:35.416Z,101161.34
2023-01-30T05:21:08.350Z,101160.41
2023-01-30T05:23:39.982Z,101163.95
2023-01-30T05:26:11.741Z,101163.80
2023-01-30T05:28:43.382Z,101162.39
2023-01-30T05:31:15.134Z,101164.98
2023-01-30T05:33:47.923Z,101165.30
2023-01-30T05:36:19.881Z,101168.08
2023-01-30T05:38:51.471Z,101167.61
2023-01-30T05:41:22.799Z,101163.63
2023-01-30T05:43:54.053Z,101162.88
2023-01-30T05:46:25.556Z,101167.73
2023-01-30T05:48:57.233Z,101170.41
2023-01-30T05:51:28.780Z,101171.67
2023-01-30T05:54:00.171Z,101173.35
2023-01-30T05:56:33.392Z,101175.93
2023-01-30T05:59:05.033Z,101178.20
2023-01-30T06:01:36.521Z,101181.28
2023-01-30T06:04:08.156Z,101180.41
2023-01-30T06:06:39.518Z,101178.80
2023-01-30T06:09:12.202Z,101174.79
2023-01-30T06:11:43.863Z,101171.83
2023-01-30T06:14:15.423Z,101173.27
2023-01-30T06:16:47.190Z,101178.00
2023-01-30T06:19:18.507Z,101175.06
2023-01-30T06:21:49.878Z,101172.90
2023-01-30T06:24:21.455Z,101173.05
2023-01-30T06:26:53.005Z,101174.48
2023-01-30T06:29:24.507Z,101174.59
2023-01-30T06:31:55.797Z,101175.94
2023-01-30T06:34:27.331Z,101176.65
2023-01-30T06:36:58.942Z,101173.07
2023-01-30T06:39:30.418Z,101171.39
2023-01-30T06:42:01.778Z,101171.91
2023-01-30T06:44:33.075Z,101168.54
2023-01-30T06:47:04.255Z,101168.20
2023-01-30T06:49:35.562Z,101168.15
2023-01-30T06:52:07.210Z,101169.94
2023-01-30T06:54:38.797Z,101172.17
2023-01-30T06:57:10.197Z,101171.60
2023-01-30T06:59:41.621Z,101173.80
2023-01-30T07:02:14.574Z,101171.15
2023-01-30T07:04:46.152Z,101166.61
2023-01-30T07:07:17.648Z,101162.14
2023-01-30T07:10:02.138Z,101160.86
2023-01-30T07:12:38.118Z,101159.00
2023-01-30T07:15:10.531Z,101159.52
2023-01-30T07:17:43.131Z,101154.00
2023-01-30T07:20:15.064Z,101149.81
2023-01-30T07:22:46.271Z,101151.27
2023-01-30T07:25:18.143Z,101151.12
2023-01-30T07:27:53.426Z,101149.39
2023-01-30T07:30:25.264Z,101145.94
2023-01-30T07:32:57.934Z,101145.42
2023-01-30T07:35:29.993Z,101144.66
2023-01-30T07:38:01.286Z,101144.91
2023-01-30T07:40:32.901Z,101145.95
2023-01-30T07:43:05.135Z,101144.95
2023-01-30T07:45:38.428Z,101148.58
2023-01-30T07:48:09.916Z,101144.80
2023-01-30T07:50:41.292Z,101142.25
2023-01-30T07:53:13.410Z,101141.27
2023-01-30T07:55:44.960Z,101141.73
2023-01-30T07:58:17.654Z,101135.70
2023-01-30T08:00:48.992Z,101135.58
2023-01-30T08:03:20.199Z,101134.25
2023-01-30T08:05:53.112Z,101131.37
2023-01-30T08:08:24.946Z,101132.00
2023-01-30T08:10:56.245Z,101130.33
2023-01-30T08:13:27.636Z,101129.42
2023-01-30T08:16:01.933Z,101123.15
2023-01-30T08:18:33.536Z,101119.38
2023-01-30T08:21:06.084Z,101114.48
2023-01-30T08:23:37.595Z,101114.27
2023-01-30T08:26:09.013Z,101111.48
2023-01-30T08:28:40.655Z,101110.63
2023-01-30T08:31:12.699Z,101103.68
2023-01-30T08:33:44.367Z,101102.16
2023-01-30T08:36:15.964Z,101103.70
2023-01-30T08:38:47.103Z,101099.27
2023-01-30T08:41:18.498Z,101100.39
2023-01-30T08:43:49.807Z,101095.05
2023-01-30T08:46:22.223Z,101094.98
2023-01-30T08:48:53.690Z,101094.08
2023-01-30T08:51:25.279Z,101095.07
2023-01-30T08:53:56.364Z,101093.94
2023-01-30T08:56:27.901Z,101088.95
2023-01-30T08:58:59.654Z,101086.06
2023-01-30T09:01:31.193Z,101085.83
2023-01-30T09:04:02.467Z,101083.09
2023-01-30T09:06:34.123Z,101078.82
2023-01-30T09:09:05.639Z,101073.56
2023-01-30T09:11:37.340Z,101074.16
2023-01-30T09:14:08.540Z,101068.95
2023-01-30T09:16:39.834Z,101062.04
2023-01-30T09:19:11.103Z,101056.52
2023-01-30T09:21:42.640Z,101051.52
2023-01-30T09:24:14.129Z,101046.39
2023-01-30T09:26:46.204Z,101044.43
2023-01-30T09:29:17.474Z,101039.36
2023-01-30T09:31:48.739Z,101036.11
2023-01-30T09:34:20.271Z,101030.39
2023-01-30T09:36:51.937Z,101022.64
2023-01-30T09:39:23.321Z,101019.58
2023-01-30T09:41:58.937Z,101013.30
2023-01-30T09:44:49.585Z,101009.41
2023-01-30T09:47:22.746Z,101005.61
2023-01-30T09:49:55.656Z,100999.02
2023-01-30T09:52:29.121Z,100991.27
2023-01-30T09:55:02.168Z,100984.27
2023-01-30T09:57:33.622Z,100978.08
2023-01-30T10:00:06.380Z,100972.92
2023-01-30T10:02:43.295Z,100968.91
2023-01-30T10:05:14.821Z,100960.51
2023-01-30T10:07:50.467Z,100954.52
2023-01-30T10:10:36.186Z,100949.61
2023-01-30T10:13:10.348Z,100943.51
2023-01-30T10:15:44.884Z,100936.84
2023-01-30T10:18:23.659Z,100932.18
2023-01-30T10:20:57.724Z,100923.30
2023-01-30T10:23:34.015Z,100914.18
2023-01-30T10:26:07.129Z,100909.56
2023-01-30T10:28:39.997Z,100902.90
2023-01-30T10:31:12.095Z,100899.36
2023-01-30T10:33:45.640Z,100894.48
2023-01-30T10:36:17.880Z,100889.77
2023-01-30T10:38:49.827Z,100890.08
2023-01-30T10:41:24.085Z,100884.48
2023-01-30T10:43:59.188Z,100875.66
2023-01-30T10:46:35.222Z,100872.55
2023-01-30T10:49:06.706Z,100866.73
2023-01-30T10:51:42.888Z,100864.45
2023-01-30T10:54:15.219Z,100855.40
2023-01-30T10:56:49.889Z,100854.98
2023-01-30T10:59:25.247Z,100848.24
2023-01-30T11:02:00.199Z,100844.29
2023-01-30T11:04:33.419Z,100841.91
2023-01-30T11:07:04.909Z,100836.50
2023-01-30T11:09:44.086Z,100837.73
2023-01-30T11:12:15.615Z,100830.13
2023-01-30T11:14:53.885Z,100830.25
2023-01-30T11:17:30.863Z,100823.87
2023-01-30T11:20:06.793Z,100818.84
2023-01-30T11:22:38.136Z,100809.73
2023-01-30T11:25:14.771Z,100806.83
2023-01-30T11:27:47.399Z,100801.61
2023-01-30T11:30:20.453Z,100794.01
2023-01-30T11:32:52.335Z,100789.06
2023-01-30T11:35:28.008Z,100784.11
2023-01-30T11:38:00.268Z,100780.50
2023-01-30T11:40:32.372Z,100773.45
2023-01-30T11:43:06.015Z,100767.71
2023-01-30T11:45:38.908Z,100763.84
2023-01-30T11:48:31.316Z,100757.23
2023-01-30T11:51:06.759Z,100755.79
2023-01-30T11:53:39.478Z,100753.16
2023-01-30T11:56:16.647Z,100745.91
2023-01-30T11:58:50.118Z,100745.39
2023-01-30T12:01:21.561Z,100741.04
2023-01-30T12:03:53.072Z,100734.13
2023-01-30T12:06:25.455Z,100738.23
2023-01-30T12:08:56.787Z,100730.86
2023-01-30T12:11:29.838Z,100721.11
2023-01-30T12:14:24.327Z,100721.73
2023-01-30T12:16:58.025Z,100713.45
2023-01-30T12:19:32.739Z,100709.71
2023-01-30T12:22:05.908Z,100697.67
2023-01-30T12:24:38.946Z,100693.39
2023-01-30T12:27:13.111Z,100691.36
2023-01-30T12:29:51.369Z,100690.84
2023-01-30T12:32:22.962Z,100681.77
2023-01-30T12:34:54.378Z,100678.90
2023-01-30T12:37:33.543Z,100668.97
2023-01-30T12:40:06.543Z,100666.41
2023-01-30T12:42:44.323Z,100666.08
2023-01-30T12:45:19.274Z,100656.52
2023-01-30T12:48:07.327Z,100648.98
2023-01-30T12:50:41.398Z,100645.19
2023-01-30T12:53:18.703Z,100644.23
2023-01-30T12:55:52.167Z,100632.52
2023-01-30T12:58:24.634Z,100626.83
2023-01-30T13:01:07.511Z,100622.45
2023-01-30T13:03:40.293Z,100621.63
2023-01-30T13:06:18.907Z,100613.33
2023-01-30T13:08:54.346Z,100614.80
2023-01-30T13:11:32.247Z,100613.17
2023-01-30T13:14:05.189Z,100614.05
2023-01-30T13:16:38.142Z,100615.52
2023-01-30T13:19:11.534Z,100610.71
2023-01-30T13:21:43.732Z,100616.29
2023-01-30T13:24:18.655Z,100613.89
2023-01-30T13:26:50.241Z,100614.84
2023-01-30T13:29:22.572Z,100616.10
2023-01-30T13:31:54.966Z,100617.05
2023-01-30T13:34:29.596Z,100611.05
2023-01-30T13:37:04.009Z,100608.10
2023-01-30T13:39:37.187Z,100606.98
2023-01-30T13:42:16.990Z,100608.53
2023-01-30T13:44:49.417Z,100608.78
2023-01-30T13:47:28.244Z,100606.18
2023-01-30T13:50:01.782Z,100600.40
2023-01-30T13:52:35.321Z,100602.08
2023-01-30T13:55:08.106Z,100602.32
2023-01-30T13:57:46.227Z,100601.33
2023-01-30T14:00:24.132Z,100599.52
2023-01-30T14:03:13.714Z,100593.33
2023-01-30T14:06:02.515Z,100591.69
2023-01-30T14:08:34.859Z,100595.10
2023-01-30T14:11:06.970Z,100587.49
2023-01-30T14:13:38.180Z,100583.84
2023-01-30T14:16:09.664Z,100580.10
2023-01-30T14:18:45.871Z,100568.70
2023-01-30T14:21:20.332Z,100569.38
2023-01-30T14:23:59.252Z,100568.92
2023-01-30T14:26:50.321Z,100566.13
2023-01-30T14:35:32.728Z,100560.23
2023-01-30T14:44:46.541Z,100560.77
2023-01-30T14:47:33.656Z,100561.23
2023-01-30T14:50:18.482Z,100558.14
2023-01-30T14:52:51.496Z,100552.98
2023-01-30T14:55:23.741Z,100553.69
2023-01-30T14:58:04.490Z,100549.73
2023-01-30T15:00:36.782Z,100550.65
2023-01-30T15:03:09.843Z,100549.65
2023-01-30T15:05:43.211Z,100546.54
2023-01-30T15:08:15.576Z,100537.02
2023-01-30T15:11:09.403Z,100537.14
2023-01-30T15:14:04.053Z,100528.80
2023-01-30T15:16:44.779Z,100529.89
2023-01-30T15:19:28.615Z,100523.84
2023-01-30T15:22:12.341Z,100517.48
2023-01-30T15:25:00.696Z,100520.64
2023-01-30T15:27:36.612Z,100521.10
2023-01-30T15:30:17.391Z,100524.02
2023-01-30T15:33:22.985Z,100519.61
2023-01-30T15:35:57.726Z,100521.45
2023-01-30T15:38:31.406Z,100527.78
2023-01-30T15:41:06.577Z,100525.88
2023-01-30T15:43:54.194Z,100526.13
2023-01-30T15:46:28.136Z,100528.60
2023-01-30T15:49:05.987Z,100527.02
2023-01-30T15:58:42.257Z,100524.35
2023-01-30T16:01:05.452Z,100522.00
2023-01-30T16:03:44.349Z,100513.13
2023-01-30T16:06:27.979Z,100515.62
2023-01-30T16:09:01.786Z,100507.70
2023-01-30T16:11:40.442Z,100500.91
2023-01-30T16:14:14.680Z,100498.02
2023-01-30T16:16:46.700Z,100497.84
2023-01-30T16:19:30.038Z,100493.28
2023-01-30T16:22:14.713Z,100489.66
2023-01-30T16:25:12.666Z,100487.05
2023-01-30T16:27:56.253Z,100483.63
2023-01-30T16:30:30.652Z,100476.53
2023-01-30T16:33:17.775Z,100470.50
2023-01-30T16:35:50.584Z,100465.87
2023-01-30T16:38:44.790Z,100469.67
2023-01-30T16:41:36.165Z,100467.47
2023-01-30T16:44:21.684Z,100467.10
2023-01-30T16:46:58.871Z,100460.09
2023-01-30T16:49:35.386Z,100465.52
2023-01-30T16:52:20.534Z,100461.14
2023-01-30T16:54:52.037Z,100463.04
2023-01-30T16:57:27.524Z,100459.96
2023-01-30T17:00:00.041Z,100455.92
2023-01-30T17:02:32.863Z,100450.23
2023-01-30T17:05:14.944Z,100451.02
2023-01-30T17:07:46.165Z,100446.31
2023-01-30T17:10:36.860Z,100444.88
2023-01-30T17:13:11.691Z,100446.06
2023-01-30T17:15:42.427Z,100441.95
2023-01-30T17:18:13.454Z,100431.40
2023-01-30T17:20:47.666Z,100431.04
2023-01-30T17:23:18.810Z,100425.09
2023-01-30T17:25:49.858Z,100421.28
2023-01-30T17:28:24.314Z,100415.45
2023-01-30T17:30:55.343Z,100414.50
2023-01-30T17:33:26.596Z,100411.38
2023-01-30T17:35:57.308Z,100404.17
2023-01-30T17:38:28.075Z,100407.15
2023-01-30T17:44:11.554Z,100405.64
2023-01-30T17:46:46.173Z,100398.13
2023-01-30T17:49:19.755Z,100391.98
2023-01-30T17:54:39.721Z,100391.00
2023-01-30T17:57:11.699Z,100383.52
2023-01-30T17:59:42.543Z,100384.96
2023-01-30T18:02:13.582Z,100381.27
2023-01-30T18:04:44.375Z,100380.30
2023-01-30T18:07:16.764Z,100366.18
2023-01-30T18:09:47.900Z,100368.77
2023-01-30T18:12:19.888Z,100367.60
2023-01-30T18:17:49.944Z,100352.54
2023-01-30T18:20:21.643Z,100350.67
2023-01-30T18:22:52.479Z,100351.14
2023-01-30T18:25:24.450Z,100350.11
2023-01-30T18:27:57.393Z,100348.67
2023-01-30T18:30:29.145Z,100356.30
2023-01-30T18:33:01.064Z,100349.59
2023-01-30T18:35:32.134Z,100345.44
2023-01-30T18:38:03.229Z,100348.00
2023-01-30T18:40:34.128Z,100347.35
2023-01-30T18:43:05.277Z,100343.34
2023-01-30T18:45:36.229Z,100340.55
2023-01-30T18:48:07.323Z,100341.85
2023-01-30T18:50:38.639Z,100343.18
2023-01-30T18:53:19.840Z,100341.77
2023-01-30T18:56:09.838Z,100336.81
2023-01-30T18:58:58.708Z,100330.52
2023-01-30T19:01:30.800Z,100333.04
2023-01-30T19:04:02.590Z,100330.66
2023-01-30T19:06:33.528Z,100324.73
2023-01-30T19:09:04.702Z,100325.71
2023-01-30T19:11:53.242Z,100325.17
2023-01-30T19:14:23.972Z,100328.88
2023-01-30T19:16:56.064Z,100323.42
2023-01-30T19:19:27.275Z,100326.55
2023-01-30T19:21:58.872Z,100321.09
2023-01-30T19:24:29.808Z,100319.58
2023-01-30T19:27:00.904Z,100322.29
2023-01-30T19:29:32.330Z,100323.14
2023-01-30T19:32:03.651Z,100323.70
2023-01-30T19:34:36.874Z,100328.38
2023-01-30T19:37:07.964Z,100328.20
2023-01-30T19:39:40.832Z,100327.30
2023-01-30T19:42:16.534Z,100321.61
2023-01-30T19:44:48.875Z,100323.26
2023-01-30T19:47:24.320Z,100320.43
2023-01-30T19:49:55.927Z,100314.60
2023-01-30T19:52:27.883Z,100311.95
2023-01-30T19:54:59.034Z,100305.43
2023-01-30T19:57:30.219Z,100298.88
2023-01-30T20:00:05.373Z,100295.15
2023-01-30T20:02:38.463Z,100294.50
2023-01-30T20:05:11.644Z,100290.67
2023-01-30T20:07:42.398Z,100281.61
2023-01-30T20:10:13.368Z,100277.55
2023-01-30T20:12:44.224Z,100280.79
2023-01-30T20:15:17.302Z,100280.27
2023-01-30T20:17:48.032Z,100279.22
2023-01-30T20:20:19.275Z,100271.52
2023-01-30T20:22:50.162Z,100270.31
2023-01-30T20:25:21.116Z,100262.26
2023-01-30T20:27:52.031Z,100262.91
2023-01-30T20:30:22.784Z,100258.66
2023-01-30T20:32:56.612Z,100260.48
2023-01-30T20:35:27.465Z,100260.34
2023-01-30T20:37:58.418Z,100261.57
2023-01-30T20:40:29.113Z,100259.58
2023-01-30T20:43:00.369Z,100258.51
2023-01-30T20:45:31.124Z,100261.29
2023-01-30T20:48:02.111Z,100260.43
2023-01-30T20:50:32.984Z,100257.09
2023-01-30T20:53:04.126Z,100254.38
2023-01-30T20:55:34.857Z,100250.45
2023-01-30T20:58:05.678Z,100249.70
2023-01-30T21:00:37.051Z,100242.20
2023-01-30T21:03:08.002Z,100243.48
2023-01-30T21:05:38.758Z,100237.46
2023-01-30T21:08:11.785Z,100235.68
2023-01-30T21:10:46.842Z,100235.30
2023-01-30T21:13:17.537Z,100235.08
2023-01-30T21:15:48.416Z,100228.83
2023-01-30T21:18:19.068Z,100234.64
2023-01-30T21:20:51.311Z,100240.12
2023-01-30T21:23:22.295Z,100237.20
2023-01-30T21:25:52.993Z,100236.52
2023-01-30T21:28:23.702Z,100238.18
2023-01-30T21:30:54.445Z,100239.93
2023-01-30T21:33:25.361Z,100243.16
2023-01-30T21:35:56.047Z,100242.59
2023-01-30T21:38:44.443Z,100243.39
2023-01-30T21:41:33.651Z,100244.74
2023-01-30T21:44:04.706Z,100242.80
2023-01-30T21:46:36.618Z,100242.84
2023-01-30T21:49:07.520Z,100242.13
2023-01-30T21:51:38.896Z,100245.92
2023-01-30T21:54:09.866Z,100247.17
2023-01-30T21:56:40.700Z,100241.20
2023-01-30T21:59:11.568Z,100241.42
2023-01-30T22:01:42.494Z,100241.00
2023-01-30T22:04:15.011Z,100240.79
2023-01-30T22:06:45.652Z,100244.69
2023-01-30T22:09:16.610Z,100247.11
2023-01-30T22:11:47.594Z,100246.94
2023-01-30T22:14:18.276Z,100242.33
2023-01-30T22:16:49.286Z,100239.62
2023-01-30T22:19:19.956Z,100238.32
2023-01-30T22:21:50.686Z,100233.25
2023-01-30T22:24:21.559Z,100233.89
2023-01-30T22:26:53.156Z,100233.20
2023-01-30T22:29:24.090Z,100229.29
2023-01-30T22:31:55.085Z,100228.53
2023-01-30T22:34:25.876Z,100225.81
2023-01-30T22:36:56.759Z,100234.04
2023-01-30T22:39:27.693Z,100230.89
2023-01-30T22:41:59.354Z,100230.55
2023-01-30T22:44:31.038Z,100224.98
2023-01-30T22:47:02.071Z,100224.09
2023-01-30T22:49:34.341Z,100218.42
2023-01-30T22:52:05.821Z,100216.47
2023-01-30T22:54:37.305Z,100212.75
2023-01-30T22:57:08.529Z,100209.58
2023-01-30T22:59:39.728Z,100205.91
2023-01-30T23:02:10.931Z,100199.42
2023-01-30T23:04:42.194Z,100197.46
2023-01-30T23:07:14.491Z,100197.80
2023-01-30T23:09:45.691Z,100198.25
2023-01-30T23:12:33.862Z,100195.98
2023-01-30T23:15:05.095Z,100200.12
2023-01-30T23:17:53.127Z,100198.50
2023-01-30T23:20:27.519Z,100194.42
2023-01-30T23:23:00.727Z,100192.50
2023-01-30T23:25:31.686Z,100190.67
2023-01-30T23:28:02.313Z,100188.57
2023-01-30T23:30:33.153Z,100180.52
2023-01-30T23:33:03.730Z,100181.34
2023-01-30T23:35:35.385Z,100185.48
2023-01-30T23:38:19.275Z,100190.72
2023-01-30T23:40:50.360Z,100192.61
2023-01-30T23:43:21.405Z,100192.42
2023-01-30T23:45:55.990Z,100190.02
2023-01-30T23:48:27.335Z,100190.91
2023-01-30T23:50:58.187Z,100195.63
2023-01-30T23:53:29.160Z,100192.25
2023-01-30T23:56:00.341Z,100197.49
2023-01-30T23:58:31.316Z,100200.06
